createdAt,value
2022-10-01T00:06:41.557Z,14.08
2022-10-01T00:16:45.670Z,14.08
2022-10-01T00:26:48.547Z,14.05
2022-10-01T00:36:52.612Z,13.81
2022-10-01T00:46:57.835Z,13.56
2022-10-01T00:57:04.060Z,12.90
2022-10-01T01:07:07.135Z,12.52
2022-10-01T01:17:15.536Z,12.46
2022-10-01T01:27:39.011Z,12.37
2022-10-01T01:37:50.210Z,11.97
2022-10-01T01:47:56.157Z,11.84
2022-10-01T01:58:00.385Z,11.73
2022-10-01T02:08:16.208Z,11.76
2022-10-01T02:18:29.508Z,11.73
2022-10-01T02:28:35.128Z,11.52
2022-10-01T02:38:42.671Z,11.41
2022-10-01T02:48:45.566Z,11.36
2022-10-01T02:58:52.412Z,11.13
2022-10-01T03:08:55.137Z,11.18
2022-10-01T03:18:59.180Z,11.11
2022-10-01T03:29:01.803Z,11.14
2022-10-01T03:39:05.910Z,11.19
2022-10-01T03:49:08.772Z,11.16
2022-10-01T03:59:13.385Z,11.27
2022-10-01T04:09:16.072Z,11.34
2022-10-01T04:19:20.551Z,11.32
2022-10-01T04:29:23.198Z,11.29
2022-10-01T04:39:27.295Z,11.33
2022-10-01T04:49:29.991Z,11.29
2022-10-01T04:59:34.137Z,11.37
2022-10-01T05:09:36.843Z,11.33
2022-10-01T05:19:40.911Z,11.45
2022-10-01T05:29:44.087Z,11.52
2022-10-01T05:39:48.486Z,11.56
2022-10-01T05:49:51.189Z,11.69
2022-10-01T05:59:56.211Z,11.82
2022-10-01T06:09:58.866Z,11.87
2022-10-01T06:20:03.144Z,12.04
2022-10-01T06:30:06.548Z,12.17
2022-10-01T06:40:11.479Z,12.35
2022-10-01T06:50:14.164Z,12.44
2022-10-01T07:00:18.348Z,12.65
2022-10-01T07:10:23.273Z,12.82
2022-10-01T07:20:27.332Z,12.95
2022-10-01T07:30:30.056Z,13.10
2022-10-01T07:40:34.149Z,13.36
2022-10-01T07:50:36.993Z,13.65
2022-10-01T08:00:43.116Z,13.82
2022-10-01T08:10:46.869Z,14.14
2022-10-01T08:20:51.863Z,14.51
2022-10-01T08:30:56.061Z,14.48
2022-10-01T08:41:06.092Z,14.63
2022-10-01T08:51:11.138Z,14.78
2022-10-01T09:01:15.303Z,15.12
2022-10-01T09:11:35.216Z,15.44
2022-10-01T09:21:55.112Z,16.15
2022-10-01T09:32:00.446Z,16.06
2022-10-01T09:42:05.083Z,16.74
2022-10-01T09:52:13.767Z,17.03
2022-10-01T10:02:23.542Z,17.80
2022-10-01T10:12:30.369Z,17.60
2022-10-01T10:22:34.424Z,17.80
2022-10-01T10:32:37.339Z,18.68
2022-10-01T10:42:48.941Z,18.49
2022-10-01T10:52:51.824Z,18.83
2022-10-01T11:02:58.441Z,18.89
2022-10-01T11:13:14.829Z,17.61
2022-10-01T11:23:46.055Z,14.29
2022-10-01T11:34:01.758Z,12.64
2022-10-01T11:44:13.812Z,15.46
2022-10-01T11:54:22.222Z,13.88
2022-10-01T12:04:32.206Z,21.07
2022-10-01T12:14:41.460Z,21.79
2022-10-01T12:24:46.677Z,18.08
2022-10-01T12:34:57.868Z,27.08
2022-10-01T12:45:12.671Z,25.89
2022-10-01T12:55:23.374Z,21.17
2022-10-01T13:05:36.418Z,19.14
2022-10-01T13:15:42.098Z,18.27
2022-10-01T13:26:01.090Z,18.42
2022-10-01T13:36:06.456Z,18.64
2022-10-01T13:46:12.087Z,18.15
2022-10-01T13:56:28.087Z,18.54
2022-10-01T14:06:38.449Z,17.82
2022-10-01T14:16:43.478Z,17.24
2022-10-01T14:26:53.307Z,17.13
2022-10-01T14:36:56.309Z,16.44
2022-10-01T14:47:01.444Z,15.27
2022-10-01T14:57:10.754Z,15.33
2022-10-01T15:07:17.117Z,15.26
2022-10-01T15:17:23.722Z,15.17
2022-10-01T15:27:28.038Z,15.28
2022-10-01T15:37:34.248Z,15.08
2022-10-01T15:47:39.077Z,15.53
2022-10-01T15:57:42.546Z,15.31
2022-10-01T16:07:54.462Z,15.29
2022-10-01T16:17:59.100Z,15.43
2022-10-01T16:28:05.366Z,15.28
2022-10-01T16:38:08.305Z,14.58
2022-10-01T16:48:17.328Z,14.52
2022-10-01T16:58:21.706Z,14.42
2022-10-01T17:08:25.766Z,14.43
2022-10-01T17:18:29.078Z,14.33
2022-10-01T17:28:33.145Z,14.22
2022-10-01T17:38:36.256Z,13.96
2022-10-01T17:48:41.038Z,13.84
2022-10-01T17:58:45.821Z,13.75
2022-10-01T18:08:55.609Z,13.74
2022-10-01T18:29:26.168Z,13.62
2022-10-01T18:39:35.887Z,13.63
2022-10-01T18:50:12.135Z,13.58
2022-10-01T19:00:17.987Z,13.61
2022-10-01T19:10:26.120Z,13.49
2022-10-01T19:21:01.260Z,13.48
2022-10-01T19:31:12.540Z,13.54
2022-10-01T19:41:23.325Z,13.37
2022-10-01T19:51:31.147Z,13.24
2022-10-01T20:01:39.566Z,13.17
2022-10-01T20:11:49.340Z,13.12
2022-10-01T20:22:02.110Z,13.12
2022-10-01T20:32:11.424Z,13.17
2022-10-01T20:42:23.540Z,13.25
2022-10-01T20:52:34.236Z,13.24
2022-10-01T21:02:43.295Z,13.08
2022-10-01T21:12:59.919Z,13.01
2022-10-01T21:23:14.115Z,12.88
2022-10-01T21:33:24.889Z,12.73
2022-10-01T21:43:45.891Z,12.70
2022-10-01T21:54:12.228Z,12.89
2022-10-01T22:04:23.320Z,13.20
2022-10-01T22:14:28.261Z,13.18
2022-10-01T22:24:37.468Z,12.88
2022-10-01T22:34:43.184Z,12.75
2022-10-01T22:44:48.068Z,12.90
2022-10-01T22:55:03.632Z,12.89
2022-10-01T23:05:17.827Z,12.31
2022-10-01T23:15:33.451Z,12.34
2022-10-01T23:25:52.953Z,12.45
2022-10-01T23:36:04.959Z,12.46
2022-10-01T23:46:13.682Z,12.44
2022-10-01T23:56:38.856Z,12.40
